Historyczne dane pomiarowe

Dodano dane terminowe – wersja testowa.

Dane z okresu 1951-2019

Wersja bazy: 1.34 [2019-03-16, lista zmian], aktualizacja planowana na 2019-04-15

Dane meteo z obszaru Polski uzyskane na podstawie danych udostępnionych przez Instytut Meteorologii i Gospodarki Wodnej – Państwowy Instytut Badawczy.

 

Wybierz Datę:    

       

TemperaturaWilgotnośćWiatrCiśnienieOpadyŚniegCzas trwania zjawisk
 Stacja t tx tn tng RH VA  wxwx mslp ppp RRR   cm mm wxwxwxwxwxwxwx
1964-05-15 9.9 13.2 5.2 4.1 72.0 8.5- 4.5--1014.2- 0.0--x- 3.8-------
1964-05-16 10.3 16.4 4.5 1.4 66.0 8.1- 3.5--1015.9- 0.0--x- 13.9-------
1964-05-17 13.3 18.3 6.0 2.7 65.0 9.7- 2.4--1012.8- 0.0--x- 6.6-------
1964-05-18 14.7 21.8 10.6 8.5 64.0 11.1- 3.7--1009.0- 0.0--x- 9.8-------
1964-05-19 12.6 18.5 5.7 4.8 46.0 6.4- 4.4--1009.5- 0.0--x- 12.2-------
1964-05-20 12.1 19.8 9.3 8.0 62.0 8.7- 3.8--1003.0- 3.2--x- 2.0-------
1964-05-21 10.8 14.0 8.5 8.1 86.0 11.2- 4.5--1004.3- 0.0--x- 0.0-------
1964-05-22 13.9 21.3 5.7 2.6 64.0 9.2- 2.6--1007.8- 0.0--x- 11.7-------
1964-05-23 16.9 23.8 10.2 8.2 43.0 8.0- 3.2--1009.2- 0.0--x- 14.9-------
1964-05-24 18.5 25.0 11.3 9.4 38.0 8.0- 3.7--1007.6- 0.0--x- 14.3-------
1964-05-25 18.6 24.4 11.0 9.3 43.0 8.9- 5.1--1003.4- 0.0--x- 11.1-------
1964-05-26 18.7 25.2 11.4 10.0 43.0 9.2- 4.8-- 999.6- 0.0--x- 13.0-------
1964-05-27 19.2 26.6 12.3 11.3 46.0 9.7- 3.7-- 997.2- 0.0--x- 12.3-------
1964-05-28 17.5 26.5 13.6 11.8 67.0 13.1- 3.7-- 997.8- 12.4--x- 5.1-------
1964-05-29 18.5 25.5 11.7 9.2 64.0 13.7- 2.3--1000.4- 0.0--x- 13.3-------
1964-05-30 19.4 26.2 14.0 12.0 60.0 13.3- 2.7-- 999.4- 8.4--x- 12.8-------
1964-05-31 15.6 22.0 10.2 9.5 77.0 13.2- 3.4-- 997.0- 2.3--x- 9.0-------
1964-06-01 17.3 28.1 13.2 12.3 82.0 16.1- 4.0-- 989.0- 7.2--x- 6.9-------
1964-06-02 18.2 27.9 14.1 12.8 78.0 16.7- 3.6-- 987.5- 9.7--x- 6.1-------
1964-06-03 19.0 25.2 12.8 9.4 61.0 13.1- 3.9-- 997.0- 0.0--x- 10.7-------
1964-06-04 18.2 24.4 10.2 7.5 58.0 11.9- 2.1--1008.2- 0.0--x- 14.0-------
1964-06-05 23.6 29.5 14.6 12.9 48.0 13.2- 3.8--1005.6- 1.7--x- 14.4-------
1964-06-06 17.6 23.8 15.7 15.3 81.0 16.3- 3.3--1008.3- 1.7--x- 4.9-------
1964-06-07 21.3 27.4 13.0 11.7 55.0 13.1- 3.3--1002.2- 4.3--x- 13.3-------
1964-06-08 15.6 22.0 13.4 14.3 73.0 13.2- 3.7--1003.4- 0.1--x- 3.2-------
1964-06-09 14.8 20.8 10.6 8.0 67.0 11.2- 3.1--1011.2- 0.0--x- 10.6-------
1964-06-10 19.1 25.4 10.2 5.6 50.0 10.5- 1.6--1010.7- 0.0--x- 14.5-------
1964-06-11 21.6 28.5 12.7 10.8 45.0 11.1- 2.6--1007.4- 0.0--x- 14.3-------
1964-06-12 23.4 30.8 14.7 11.5 49.0 13.5- 2.8--1006.2- 0.0--x- 11.7-------
1964-06-13 26.9 33.3 19.2 17.6 39.0 13.6- 3.6--1001.0- 0.0--x- 13.6-------
358.3 ms

 

Źródłem pochodzenia danych jest Instytut Meteorologii i Gospodarki Wodnej – Państwowy Instytut Badawczy. Dane Instytutu Meteorologii i Gospodarki Wodnej – Państwowego Instytutu Badawczego zostały przetworzone.

Dane źródłowe można odnaleźć na stronie https://dane.imgw.pl